sensor_id;sensor_type;location;lat;lon;timestamp;temperature;humidity
21425;DHT22;10873;51.132;16.848;2023-04-06T00:00:59;23.30;41.10
21425;DHT22;10873;51.132;16.848;2023-04-06T00:03:25;23.30;41.10
21425;DHT22;10873;51.132;16.848;2023-04-06T00:05:51;23.30;41.20
21425;DHT22;10873;51.132;16.848;2023-04-06T00:08:17;23.20;41.10
21425;DHT22;10873;51.132;16.848;2023-04-06T00:10:43;23.30;41.10
21425;DHT22;10873;51.132;16.848;2023-04-06T00:13:09;23.30;41.10
21425;DHT22;10873;51.132;16.848;2023-04-06T00:15:37;23.30;41.00
21425;DHT22;10873;51.132;16.848;2023-04-06T00:18:03;23.30;41.00
21425;DHT22;10873;51.132;16.848;2023-04-06T00:20:29;23.20;40.90
21425;DHT22;10873;51.132;16.848;2023-04-06T00:22:55;23.30;40.90
21425;DHT22;10873;51.132;16.848;2023-04-06T00:25:21;23.20;40.90
21425;DHT22;10873;51.132;16.848;2023-04-06T00:27:47;23.30;41.00
21425;DHT22;10873;51.132;16.848;2023-04-06T00:30:13;23.20;40.90
21425;DHT22;10873;51.132;16.848;2023-04-06T00:32:41;23.20;41.00
21425;DHT22;10873;51.132;16.848;2023-04-06T00:35:08;23.20;41.00
21425;DHT22;10873;51.132;16.848;2023-04-06T00:37:34;23.20;40.90
21425;DHT22;10873;51.132;16.848;2023-04-06T00:40:00;23.30;40.90
21425;DHT22;10873;51.132;16.848;2023-04-06T00:42:27;23.20;40.80
21425;DHT22;10873;51.132;16.848;2023-04-06T00:44:53;23.30;40.80
21425;DHT22;10873;51.132;16.848;2023-04-06T00:47:19;23.30;40.70
21425;DHT22;10873;51.132;16.848;2023-04-06T00:49:47;23.20;40.70
21425;DHT22;10873;51.132;16.848;2023-04-06T00:52:13;23.20;40.70
21425;DHT22;10873;51.132;16.848;2023-04-06T00:54:39;23.20;40.70
21425;DHT22;10873;51.132;16.848;2023-04-06T00:57:05;23.20;40.70
21425;DHT22;10873;51.132;16.848;2023-04-06T00:59:31;23.20;40.70
21425;DHT22;10873;51.132;16.848;2023-04-06T01:01:57;23.20;40.80
21425;DHT22;10873;51.132;16.848;2023-04-06T01:04:23;23.20;40.70
21425;DHT22;10873;51.132;16.848;2023-04-06T01:06:51;23.20;40.60
21425;DHT22;10873;51.132;16.848;2023-04-06T01:09:17;23.20;40.60
21425;DHT22;10873;51.132;16.848;2023-04-06T01:11:43;23.20;40.60
21425;DHT22;10873;51.132;16.848;2023-04-06T01:14:09;23.20;40.60
21425;DHT22;10873;51.132;16.848;2023-04-06T01:16:36;23.20;40.60
21425;DHT22;10873;51.132;16.848;2023-04-06T01:19:07;23.20;40.70
21425;DHT22;10873;51.132;16.848;2023-04-06T01:21:34;23.20;40.70
21425;DHT22;10873;51.132;16.848;2023-04-06T01:24:01;23.20;40.70
21425;DHT22;10873;51.132;16.848;2023-04-06T01:26:27;23.20;40.70
21425;DHT22;10873;51.132;16.848;2023-04-06T01:28:54;23.20;40.60
21425;DHT22;10873;51.132;16.848;2023-04-06T01:31:21;23.20;40.60
21425;DHT22;10873;51.132;16.848;2023-04-06T01:33:47;23.20;40.50
21425;DHT22;10873;51.132;16.848;2023-04-06T01:36:13;23.20;40.40
21425;DHT22;10873;51.132;16.848;2023-04-06T01:38:39;23.20;40.40
21425;DHT22;10873;51.132;16.848;2023-04-06T01:41:07;23.20;40.30
21425;DHT22;10873;51.132;16.848;2023-04-06T01:43:33;23.20;40.40
21425;DHT22;10873;51.132;16.848;2023-04-06T01:46:00;23.20;40.40
21425;DHT22;10873;51.132;16.848;2023-04-06T01:48:26;23.20;40.50
21425;DHT22;10873;51.132;16.848;2023-04-06T01:50:52;23.20;40.50
21425;DHT22;10873;51.132;16.848;2023-04-06T01:53:18;23.20;40.50
21425;DHT22;10873;51.132;16.848;2023-04-06T01:55:44;23.20;40.40
21425;DHT22;10873;51.132;16.848;2023-04-06T01:58:12;23.20;40.40
21425;DHT22;10873;51.132;16.848;2023-04-06T02:00:38;23.20;40.30
21425;DHT22;10873;51.132;16.848;2023-04-06T02:03:04;23.20;40.30
21425;DHT22;10873;51.132;16.848;2023-04-06T02:05:32;23.30;40.30
21425;DHT22;10873;51.132;16.848;2023-04-06T02:08:03;23.20;40.20
21425;DHT22;10873;51.132;16.848;2023-04-06T02:10:29;23.20;40.20
21425;DHT22;10873;51.132;16.848;2023-04-06T02:12:55;23.20;40.10
21425;DHT22;10873;51.132;16.848;2023-04-06T02:15:23;23.20;40.10
21425;DHT22;10873;51.132;16.848;2023-04-06T02:17:49;23.20;40.10
21425;DHT22;10873;51.132;16.848;2023-04-06T02:20:15;23.20;40.10
21425;DHT22;10873;51.132;16.848;2023-04-06T02:22:41;23.20;40.10
21425;DHT22;10873;51.132;16.848;2023-04-06T02:25:08;23.20;40.00
21425;DHT22;10873;51.132;16.848;2023-04-06T02:27:34;23.20;39.90
21425;DHT22;10873;51.132;16.848;2023-04-06T02:30:01;23.20;39.90
21425;DHT22;10873;51.132;16.848;2023-04-06T02:32:28;23.20;39.80
21425;DHT22;10873;51.132;16.848;2023-04-06T02:34:54;23.20;39.80
21425;DHT22;10873;51.132;16.848;2023-04-06T02:37:20;23.20;39.80
21425;DHT22;10873;51.132;16.848;2023-04-06T02:39:47;23.20;39.70
21425;DHT22;10873;51.132;16.848;2023-04-06T02:42:13;23.20;39.80
21425;DHT22;10873;51.132;16.848;2023-04-06T02:44:41;23.20;39.80
21425;DHT22;10873;51.132;16.848;2023-04-06T02:47:07;23.20;39.90
21425;DHT22;10873;51.132;16.848;2023-04-06T02:49:34;23.20;39.90
21425;DHT22;10873;51.132;16.848;2023-04-06T02:52:00;23.20;40.00
21425;DHT22;10873;51.132;16.848;2023-04-06T02:54:27;23.20;39.90
21425;DHT22;10873;51.132;16.848;2023-04-06T02:56:52;23.20;39.90
21425;DHT22;10873;51.132;16.848;2023-04-06T02:59:18;23.20;39.90
21425;DHT22;10873;51.132;16.848;2023-04-06T03:01:44;23.20;39.80
21425;DHT22;10873;51.132;16.848;2023-04-06T03:04:11;23.20;39.80
21425;DHT22;10873;51.132;16.848;2023-04-06T03:06:38;23.20;39.80
21425;DHT22;10873;51.132;16.848;2023-04-06T03:09:06;23.20;39.80
21425;DHT22;10873;51.132;16.848;2023-04-06T03:11:32;23.20;39.80
21425;DHT22;10873;51.132;16.848;2023-04-06T03:13:58;23.20;39.80
21425;DHT22;10873;51.132;16.848;2023-04-06T03:16:24;23.20;39.80
21425;DHT22;10873;51.132;16.848;2023-04-06T03:18:51;23.20;39.90
21425;DHT22;10873;51.132;16.848;2023-04-06T03:21:16;23.20;39.90
21425;DHT22;10873;51.132;16.848;2023-04-06T03:23:44;23.20;39.90
21425;DHT22;10873;51.132;16.848;2023-04-06T03:26:10;23.20;39.90
21425;DHT22;10873;51.132;16.848;2023-04-06T03:28:36;23.20;39.80
21425;DHT22;10873;51.132;16.848;2023-04-06T03:31:02;23.20;39.80
21425;DHT22;10873;51.132;16.848;2023-04-06T03:33:28;23.20;39.80
21425;DHT22;10873;51.132;16.848;2023-04-06T03:35:54;23.20;39.70
21425;DHT22;10873;51.132;16.848;2023-04-06T03:38:20;23.20;39.70
21425;DHT22;10873;51.132;16.848;2023-04-06T03:40:48;23.20;39.70
21425;DHT22;10873;51.132;16.848;2023-04-06T03:43:14;23.20;39.70
21425;DHT22;10873;51.132;16.848;2023-04-06T03:45:40;23.20;40.40
21425;DHT22;10873;51.132;16.848;2023-04-06T03:48:06;23.20;39.70
21425;DHT22;10873;51.132;16.848;2023-04-06T03:50:31;23.20;40.00
21425;DHT22;10873;51.132;16.848;2023-04-06T03:52:58;23.20;39.80
21425;DHT22;10873;51.132;16.848;2023-04-06T03:55:23;23.30;39.80
21425;DHT22;10873;51.132;16.848;2023-04-06T03:57:51;23.30;39.70
21425;DHT22;10873;51.132;16.848;2023-04-06T04:00:17;23.30;39.70
21425;DHT22;10873;51.132;16.848;2023-04-06T04:02:44;23.30;39.70
21425;DHT22;10873;51.132;16.848;2023-04-06T04:05:10;23.30;39.70
21425;DHT22;10873;51.132;16.848;2023-04-06T04:07:36;23.30;39.60
21425;DHT22;10873;51.132;16.848;2023-04-06T04:10:02;23.30;39.60
21425;DHT22;10873;51.132;16.848;2023-04-06T04:12:28;23.30;39.50
21425;DHT22;10873;51.132;16.848;2023-04-06T04:14:55;23.30;39.50
21425;DHT22;10873;51.132;16.848;2023-04-06T04:17:22;23.30;39.50
21425;DHT22;10873;51.132;16.848;2023-04-06T04:19:47;23.30;39.50
21425;DHT22;10873;51.132;16.848;2023-04-06T04:22:14;23.30;39.50
21425;DHT22;10873;51.132;16.848;2023-04-06T04:24:39;23.30;39.30
21425;DHT22;10873;51.132;16.848;2023-04-06T04:27:06;23.30;39.20
21425;DHT22;10873;51.132;16.848;2023-04-06T04:29:32;23.30;39.30
21425;DHT22;10873;51.132;16.848;2023-04-06T04:31:59;23.30;40.80
21425;DHT22;10873;51.132;16.848;2023-04-06T04:34:25;23.30;42.20
21425;DHT22;10873;51.132;16.848;2023-04-06T04:36:51;23.40;43.00
21425;DHT22;10873;51.132;16.848;2023-04-06T04:39:17;23.40;43.20
21425;DHT22;10873;51.132;16.848;2023-04-06T04:41:44;23.40;43.20
21425;DHT22;10873;51.132;16.848;2023-04-06T04:44:09;23.40;43.10
21425;DHT22;10873;51.132;16.848;2023-04-06T04:46:36;23.30;43.00
21425;DHT22;10873;51.132;16.848;2023-04-06T04:49:03;23.30;43.00
21425;DHT22;10873;51.132;16.848;2023-04-06T04:51:29;23.30;43.00
21425;DHT22;10873;51.132;16.848;2023-04-06T04:53:55;23.30;43.00
21425;DHT22;10873;51.132;16.848;2023-04-06T04:56:22;23.30;42.90
21425;DHT22;10873;51.132;16.848;2023-04-06T04:58:48;23.20;42.90
21425;DHT22;10873;51.132;16.848;2023-04-06T05:01:14;23.20;42.90
21425;DHT22;10873;51.132;16.848;2023-04-06T05:03:40;23.20;42.90
21425;DHT22;10873;51.132;16.848;2023-04-06T05:06:08;23.20;42.80
21425;DHT22;10873;51.132;16.848;2023-04-06T05:08:35;23.20;42.80
21425;DHT22;10873;51.132;16.848;2023-04-06T05:11:01;23.20;42.70
21425;DHT22;10873;51.132;16.848;2023-04-06T05:13:27;23.20;42.70
21425;DHT22;10873;51.132;16.848;2023-04-06T05:15:53;23.20;42.70
21425;DHT22;10873;51.132;16.848;2023-04-06T05:18:19;23.20;42.70
21425;DHT22;10873;51.132;16.848;2023-04-06T05:20:45;23.20;42.70
21425;DHT22;10873;51.132;16.848;2023-04-06T05:23:12;23.20;42.60
21425;DHT22;10873;51.132;16.848;2023-04-06T05:25:38;23.20;42.60
21425;DHT22;10873;51.132;16.848;2023-04-06T05:28:04;23.20;42.60
21425;DHT22;10873;51.132;16.848;2023-04-06T05:30:31;23.20;42.70
21425;DHT22;10873;51.132;16.848;2023-04-06T05:32:57;23.20;42.60
21425;DHT22;10873;51.132;16.848;2023-04-06T05:35:23;23.20;42.60
21425;DHT22;10873;51.132;16.848;2023-04-06T05:37:49;23.20;42.60
21425;DHT22;10873;51.132;16.848;2023-04-06T05:40:17;23.20;42.60
21425;DHT22;10873;51.132;16.848;2023-04-06T05:42:43;23.20;42.60
21425;DHT22;10873;51.132;16.848;2023-04-06T05:45:10;23.20;42.60
21425;DHT22;10873;51.132;16.848;2023-04-06T05:47:37;23.20;42.60
21425;DHT22;10873;51.132;16.848;2023-04-06T05:50:04;23.20;42.60
21425;DHT22;10873;51.132;16.848;2023-04-06T05:52:30;23.20;42.60
21425;DHT22;10873;51.132;16.848;2023-04-06T05:54:56;23.20;42.60
21425;DHT22;10873;51.132;16.848;2023-04-06T05:57:23;23.30;42.70
21425;DHT22;10873;51.132;16.848;2023-04-06T05:59:49;23.30;42.70
21425;DHT22;10873;51.132;16.848;2023-04-06T06:02:15;23.30;42.70
21425;DHT22;10873;51.132;16.848;2023-04-06T06:04:41;23.30;42.80
21425;DHT22;10873;51.132;16.848;2023-04-06T06:07:07;23.30;42.70
21425;DHT22;10873;51.132;16.848;2023-04-06T06:09:33;23.20;42.70
21425;DHT22;10873;51.132;16.848;2023-04-06T06:11:59;23.30;42.80
21425;DHT22;10873;51.132;16.848;2023-04-06T06:14:27;23.30;42.80
21425;DHT22;10873;51.132;16.848;2023-04-06T06:16:54;23.30;42.70
21425;DHT22;10873;51.132;16.848;2023-04-06T06:19:20;23.30;42.70
21425;DHT22;10873;51.132;16.848;2023-04-06T06:21:46;23.30;42.70
21425;DHT22;10873;51.132;16.848;2023-04-06T06:24:12;23.40;42.70
21425;DHT22;10873;51.132;16.848;2023-04-06T06:26:38;23.40;42.60
21425;DHT22;10873;51.132;16.848;2023-04-06T06:29:06;23.40;42.60
21425;DHT22;10873;51.132;16.848;2023-04-06T06:31:34;23.40;42.60
21425;DHT22;10873;51.132;16.848;2023-04-06T06:34:01;23.40;43.20
21425;DHT22;10873;51.132;16.848;2023-04-06T06:36:28;23.40;42.60
21425;DHT22;10873;51.132;16.848;2023-04-06T06:38:55;23.40;42.60
21425;DHT22;10873;51.132;16.848;2023-04-06T06:41:21;23.40;42.70
21425;DHT22;10873;51.132;16.848;2023-04-06T06:43:47;23.40;42.70
21425;DHT22;10873;51.132;16.848;2023-04-06T06:46:13;23.40;42.70
21425;DHT22;10873;51.132;16.848;2023-04-06T06:48:40;23.30;43.40
21425;DHT22;10873;51.132;16.848;2023-04-06T06:51:06;23.40;42.80
21425;DHT22;10873;51.132;16.848;2023-04-06T06:53:32;23.40;42.80
21425;DHT22;10873;51.132;16.848;2023-04-06T06:55:58;23.40;42.80
21425;DHT22;10873;51.132;16.848;2023-04-06T06:58:24;23.40;42.80
21425;DHT22;10873;51.132;16.848;2023-04-06T07:00:51;23.40;42.80
21425;DHT22;10873;51.132;16.848;2023-04-06T07:03:21;23.40;42.80
21425;DHT22;10873;51.132;16.848;2023-04-06T07:05:48;23.40;43.00
21425;DHT22;10873;51.132;16.848;2023-04-06T07:08:18;23.40;43.00
21425;DHT22;10873;51.132;16.848;2023-04-06T07:10:44;23.40;43.10
21425;DHT22;10873;51.132;16.848;2023-04-06T07:13:10;23.40;43.10
21425;DHT22;10873;51.132;16.848;2023-04-06T07:15:37;23.40;43.20
21425;DHT22;10873;51.132;16.848;2023-04-06T07:18:03;23.40;43.20
21425;DHT22;10873;51.132;16.848;2023-04-06T07:20:29;23.40;43.30
21425;DHT22;10873;51.132;16.848;2023-04-06T07:22:57;23.40;43.30
21425;DHT22;10873;51.132;16.848;2023-04-06T07:25:22;23.40;43.30
21425;DHT22;10873;51.132;16.848;2023-04-06T07:27:49;23.40;43.30
21425;DHT22;10873;51.132;16.848;2023-04-06T07:30:15;23.40;43.30
21425;DHT22;10873;51.132;16.848;2023-04-06T07:32:41;23.40;43.40
21425;DHT22;10873;51.132;16.848;2023-04-06T07:35:07;23.40;43.40
21425;DHT22;10873;51.132;16.848;2023-04-06T07:37:33;23.40;43.40
21425;DHT22;10873;51.132;16.848;2023-04-06T07:40:00;23.40;43.40
21425;DHT22;10873;51.132;16.848;2023-04-06T07:42:27;23.40;43.40
21425;DHT22;10873;51.132;16.848;2023-04-06T07:44:52;23.50;43.50
21425;DHT22;10873;51.132;16.848;2023-04-06T07:47:19;23.40;43.50
21425;DHT22;10873;51.132;16.848;2023-04-06T07:49:44;23.40;43.50
21425;DHT22;10873;51.132;16.848;2023-04-06T07:52:11;23.40;43.50
21425;DHT22;10873;51.132;16.848;2023-04-06T07:54:37;23.40;43.60
21425;DHT22;10873;51.132;16.848;2023-04-06T07:57:04;23.40;43.60
21425;DHT22;10873;51.132;16.848;2023-04-06T07:59:30;23.40;43.70
21425;DHT22;10873;51.132;16.848;2023-04-06T08:01:56;23.40;43.70
21425;DHT22;10873;51.132;16.848;2023-04-06T08:04:22;23.40;43.70
21425;DHT22;10873;51.132;16.848;2023-04-06T08:06:48;23.40;43.70
21425;DHT22;10873;51.132;16.848;2023-04-06T08:09:14;23.40;43.70
21425;DHT22;10873;51.132;16.848;2023-04-06T08:11:41;23.50;43.70
21425;DHT22;10873;51.132;16.848;2023-04-06T08:14:08;23.50;43.60
21425;DHT22;10873;51.132;16.848;2023-04-06T08:16:34;23.50;43.60
21425;DHT22;10873;51.132;16.848;2023-04-06T08:19:00;23.50;43.60
21425;DHT22;10873;51.132;16.848;2023-04-06T08:21:26;23.50;43.50
21425;DHT22;10873;51.132;16.848;2023-04-06T08:23:52;23.50;43.50
21425;DHT22;10873;51.132;16.848;2023-04-06T08:26:18;23.50;43.50
21425;DHT22;10873;51.132;16.848;2023-04-06T08:28:44;23.50;43.50
21425;DHT22;10873;51.132;16.848;2023-04-06T08:31:11;23.50;44.20
21425;DHT22;10873;51.132;16.848;2023-04-06T08:33:37;23.50;43.60
21425;DHT22;10873;51.132;16.848;2023-04-06T08:36:09;23.50;43.50
21425;DHT22;10873;51.132;16.848;2023-04-06T08:38:36;23.50;43.50
21425;DHT22;10873;51.132;16.848;2023-04-06T08:41:07;23.40;43.40
21425;DHT22;10873;51.132;16.848;2023-04-06T08:43:34;23.40;43.40
21425;DHT22;10873;51.132;16.848;2023-04-06T08:46:03;23.50;43.50
21425;DHT22;10873;51.132;16.848;2023-04-06T08:48:30;23.50;43.60
21425;DHT22;10873;51.132;16.848;2023-04-06T08:50:57;23.50;43.40
21425;DHT22;10873;51.132;16.848;2023-04-06T08:53:23;23.50;43.30
21425;DHT22;10873;51.132;16.848;2023-04-06T08:55:49;23.50;43.30
21425;DHT22;10873;51.132;16.848;2023-04-06T08:58:17;23.50;43.30
21425;DHT22;10873;51.132;16.848;2023-04-06T09:00:43;23.50;43.20
21425;DHT22;10873;51.132;16.848;2023-04-06T09:03:12;23.50;43.20
21425;DHT22;10873;51.132;16.848;2023-04-06T09:05:40;23.50;43.20
21425;DHT22;10873;51.132;16.848;2023-04-06T09:08:06;23.50;43.20
21425;DHT22;10873;51.132;16.848;2023-04-06T09:10:32;23.50;43.30
21425;DHT22;10873;51.132;16.848;2023-04-06T09:13:08;23.50;43.20
21425;DHT22;10873;51.132;16.848;2023-04-06T09:15:35;23.50;43.30
21425;DHT22;10873;51.132;16.848;2023-04-06T09:18:01;23.50;43.30
21425;DHT22;10873;51.132;16.848;2023-04-06T09:20:27;23.50;43.30
21425;DHT22;10873;51.132;16.848;2023-04-06T09:22:57;23.50;43.30
21425;DHT22;10873;51.132;16.848;2023-04-06T09:25:24;23.50;43.40
21425;DHT22;10873;51.132;16.848;2023-04-06T09:27:59;23.50;43.30
21425;DHT22;10873;51.132;16.848;2023-04-06T09:30:26;23.50;43.20
21425;DHT22;10873;51.132;16.848;2023-04-06T09:32:54;23.50;43.10
21425;DHT22;10873;51.132;16.848;2023-04-06T09:35:21;23.50;43.00
21425;DHT22;10873;51.132;16.848;2023-04-06T09:37:49;23.60;43.00
21425;DHT22;10873;51.132;16.848;2023-04-06T09:40:18;23.60;43.00
21425;DHT22;10873;51.132;16.848;2023-04-06T09:42:45;23.60;43.00
21425;DHT22;10873;51.132;16.848;2023-04-06T09:45:13;23.60;43.00
21425;DHT22;10873;51.132;16.848;2023-04-06T09:47:40;23.60;43.00
21425;DHT22;10873;51.132;16.848;2023-04-06T09:50:10;23.60;43.00
21425;DHT22;10873;51.132;16.848;2023-04-06T09:52:41;23.50;42.90
21425;DHT22;10873;51.132;16.848;2023-04-06T09:55:08;23.50;42.90
21425;DHT22;10873;51.132;16.848;2023-04-06T09:57:40;23.50;42.80
21425;DHT22;10873;51.132;16.848;2023-04-06T10:00:09;23.50;43.50
21425;DHT22;10873;51.132;16.848;2023-04-06T10:02:43;23.50;42.90
21425;DHT22;10873;51.132;16.848;2023-04-06T10:05:17;23.50;42.90
21425;DHT22;10873;51.132;16.848;2023-04-06T10:07:45;23.50;42.90
21425;DHT22;10873;51.132;16.848;2023-04-06T10:10:12;23.50;42.90
21425;DHT22;10873;51.132;16.848;2023-04-06T10:12:41;23.50;43.60
21425;DHT22;10873;51.132;16.848;2023-04-06T10:15:10;23.50;42.90
21425;DHT22;10873;51.132;16.848;2023-04-06T10:17:36;23.50;42.90
21425;DHT22;10873;51.132;16.848;2023-04-06T10:20:05;23.50;42.90
21425;DHT22;10873;51.132;16.848;2023-04-06T10:22:36;23.50;42.80
21425;DHT22;10873;51.132;16.848;2023-04-06T10:25:03;23.60;42.80
21425;DHT22;10873;51.132;16.848;2023-04-06T10:27:29;23.60;42.70
21425;DHT22;10873;51.132;16.848;2023-04-06T10:30:03;23.60;42.70
21425;DHT22;10873;51.132;16.848;2023-04-06T10:32:33;23.60;42.60
21425;DHT22;10873;51.132;16.848;2023-04-06T10:35:05;23.60;42.70
21425;DHT22;10873;51.132;16.848;2023-04-06T10:37:46;23.60;42.60
21425;DHT22;10873;51.132;16.848;2023-04-06T10:40:18;23.60;42.70
21425;DHT22;10873;51.132;16.848;2023-04-06T10:42:44;23.50;42.60
21425;DHT22;10873;51.132;16.848;2023-04-06T10:45:21;23.60;42.60
21425;DHT22;10873;51.132;16.848;2023-04-06T10:47:47;23.60;43.30
21425;DHT22;10873;51.132;16.848;2023-04-06T10:50:15;23.50;42.60
21425;DHT22;10873;51.132;16.848;2023-04-06T10:52:44;23.60;42.70
21425;DHT22;10873;51.132;16.848;2023-04-06T10:55:14;23.60;42.70
21425;DHT22;10873;51.132;16.848;2023-04-06T10:57:40;23.60;42.60
21425;DHT22;10873;51.132;16.848;2023-04-06T11:00:08;23.60;42.70
21425;DHT22;10873;51.132;16.848;2023-04-06T11:02:36;23.60;42.70
21425;DHT22;10873;51.132;16.848;2023-04-06T11:05:04;23.60;42.60
21425;DHT22;10873;51.132;16.848;2023-04-06T11:07:30;23.60;42.50
21425;DHT22;10873;51.132;16.848;2023-04-06T11:09:56;23.60;42.50
21425;DHT22;10873;51.132;16.848;2023-04-06T11:12:23;23.50;42.40
21425;DHT22;10873;51.132;16.848;2023-04-06T11:14:55;23.50;42.40
21425;DHT22;10873;51.132;16.848;2023-04-06T11:17:25;23.50;42.40
21425;DHT22;10873;51.132;16.848;2023-04-06T11:19:53;23.50;42.50
21425;DHT22;10873;51.132;16.848;2023-04-06T11:22:19;23.50;42.50
21425;DHT22;10873;51.132;16.848;2023-04-06T11:24:45;23.50;42.50
21425;DHT22;10873;51.132;16.848;2023-04-06T11:27:11;23.50;42.40
21425;DHT22;10873;51.132;16.848;2023-04-06T11:29:38;23.60;42.40
21425;DHT22;10873;51.132;16.848;2023-04-06T11:32:05;23.60;42.30
21425;DHT22;10873;51.132;16.848;2023-04-06T11:34:33;23.60;42.30
21425;DHT22;10873;51.132;16.848;2023-04-06T11:37:07;23.60;42.30
21425;DHT22;10873;51.132;16.848;2023-04-06T11:39:38;23.60;42.30
21425;DHT22;10873;51.132;16.848;2023-04-06T11:42:05;23.60;42.20
21425;DHT22;10873;51.132;16.848;2023-04-06T11:44:33;23.70;42.30
21425;DHT22;10873;51.132;16.848;2023-04-06T11:47:00;23.70;42.30
21425;DHT22;10873;51.132;16.848;2023-04-06T11:49:27;23.60;42.20
21425;DHT22;10873;51.132;16.848;2023-04-06T11:51:54;23.70;42.30
21425;DHT22;10873;51.132;16.848;2023-04-06T11:54:31;23.70;42.30
21425;DHT22;10873;51.132;16.848;2023-04-06T11:56:58;23.70;42.30
21425;DHT22;10873;51.132;16.848;2023-04-06T11:59:24;23.70;42.30
21425;DHT22;10873;51.132;16.848;2023-04-06T12:01:50;23.70;42.30
21425;DHT22;10873;51.132;16.848;2023-04-06T12:04:18;23.70;42.30
21425;DHT22;10873;51.132;16.848;2023-04-06T12:06:43;23.70;43.10
21425;DHT22;10873;51.132;16.848;2023-04-06T12:09:10;23.70;42.10
21425;DHT22;10873;51.132;16.848;2023-04-06T12:11:37;23.70;42.00
21425;DHT22;10873;51.132;16.848;2023-04-06T12:14:04;23.70;42.10
21425;DHT22;10873;51.132;16.848;2023-04-06T12:16:30;23.70;42.30
21425;DHT22;10873;51.132;16.848;2023-04-06T12:18:57;23.80;42.50
21425;DHT22;10873;51.132;16.848;2023-04-06T12:21:23;23.80;42.60
21425;DHT22;10873;51.132;16.848;2023-04-06T12:23:49;23.80;42.60
21425;DHT22;10873;51.132;16.848;2023-04-06T12:26:15;23.80;42.80
21425;DHT22;10873;51.132;16.848;2023-04-06T12:28:42;23.80;43.00
21425;DHT22;10873;51.132;16.848;2023-04-06T12:31:14;23.80;43.10
21425;DHT22;10873;51.132;16.848;2023-04-06T12:33:41;23.80;43.20
21425;DHT22;10873;51.132;16.848;2023-04-06T12:36:11;23.80;43.30
21425;DHT22;10873;51.132;16.848;2023-04-06T12:38:38;23.80;43.30
21425;DHT22;10873;51.132;16.848;2023-04-06T12:41:05;23.80;43.50
21425;DHT22;10873;51.132;16.848;2023-04-06T12:43:31;23.80;43.50
21425;DHT22;10873;51.132;16.848;2023-04-06T12:45:58;23.80;43.50
21425;DHT22;10873;51.132;16.848;2023-04-06T12:48:25;23.80;43.40
21425;DHT22;10873;51.132;16.848;2023-04-06T12:50:57;23.80;43.50
21425;DHT22;10873;51.132;16.848;2023-04-06T12:53:23;23.80;43.80
21425;DHT22;10873;51.132;16.848;2023-04-06T12:55:49;23.80;44.00
21425;DHT22;10873;51.132;16.848;2023-04-06T12:58:16;23.80;44.10
21425;DHT22;10873;51.132;16.848;2023-04-06T13:00:42;23.90;44.30
21425;DHT22;10873;51.132;16.848;2023-04-06T13:03:10;23.90;44.30
21425;DHT22;10873;51.132;16.848;2023-04-06T13:05:36;23.90;44.40
21425;DHT22;10873;51.132;16.848;2023-04-06T13:08:02;24.00;44.40
21425;DHT22;10873;51.132;16.848;2023-04-06T13:10:28;23.90;44.60
21425;DHT22;10873;51.132;16.848;2023-04-06T13:12:54;24.00;44.50
21425;DHT22;10873;51.132;16.848;2023-04-06T13:15:20;24.00;44.00
21425;DHT22;10873;51.132;16.848;2023-04-06T13:17:46;24.00;43.60
21425;DHT22;10873;51.132;16.848;2023-04-06T13:20:13;24.00;43.90
21425;DHT22;10873;51.132;16.848;2023-04-06T13:22:40;24.00;44.10
21425;DHT22;10873;51.132;16.848;2023-04-06T13:25:06;24.00;44.20
21425;DHT22;10873;51.132;16.848;2023-04-06T13:27:33;24.00;44.10
21425;DHT22;10873;51.132;16.848;2023-04-06T13:30:01;24.00;44.30
21425;DHT22;10873;51.132;16.848;2023-04-06T13:32:28;24.00;44.50
21425;DHT22;10873;51.132;16.848;2023-04-06T13:34:54;24.00;44.60
21425;DHT22;10873;51.132;16.848;2023-04-06T13:37:22;24.00;44.80
21425;DHT22;10873;51.132;16.848;2023-04-06T13:39:48;24.00;44.90
21425;DHT22;10873;51.132;16.848;2023-04-06T13:42:14;24.00;44.90
21425;DHT22;10873;51.132;16.848;2023-04-06T13:44:40;24.00;45.10
21425;DHT22;10873;51.132;16.848;2023-04-06T13:47:06;23.90;45.10
21425;DHT22;10873;51.132;16.848;2023-04-06T13:49:32;23.90;45.10
21425;DHT22;10873;51.132;16.848;2023-04-06T13:51:58;23.90;45.20
21425;DHT22;10873;51.132;16.848;2023-04-06T13:54:26;23.90;45.20
21425;DHT22;10873;51.132;16.848;2023-04-06T13:56:52;23.90;45.20
21425;DHT22;10873;51.132;16.848;2023-04-06T13:59:18;23.90;45.30
21425;DHT22;10873;51.132;16.848;2023-04-06T14:01:44;23.90;45.50
21425;DHT22;10873;51.132;16.848;2023-04-06T14:04:10;23.90;45.70
21425;DHT22;10873;51.132;16.848;2023-04-06T14:06:37;23.90;45.70
21425;DHT22;10873;51.132;16.848;2023-04-06T14:09:03;23.90;46.00
21425;DHT22;10873;51.132;16.848;2023-04-06T14:11:31;23.90;46.10
21425;DHT22;10873;51.132;16.848;2023-04-06T14:13:57;23.90;46.10
21425;DHT22;10873;51.132;16.848;2023-04-06T14:16:23;23.90;45.60
21425;DHT22;10873;51.132;16.848;2023-04-06T14:18:49;23.90;46.00
21425;DHT22;10873;51.132;16.848;2023-04-06T14:21:17;23.90;46.30
21425;DHT22;10873;51.132;16.848;2023-04-06T14:23:44;23.90;46.50
21425;DHT22;10873;51.132;16.848;2023-04-06T14:26:10;23.90;46.60
21425;DHT22;10873;51.132;16.848;2023-04-06T14:28:38;23.90;46.60
21425;DHT22;10873;51.132;16.848;2023-04-06T14:31:10;23.90;46.50
21425;DHT22;10873;51.132;16.848;2023-04-06T14:33:37;23.90;46.70
21425;DHT22;10873;51.132;16.848;2023-04-06T14:36:04;23.90;46.60
21425;DHT22;10873;51.132;16.848;2023-04-06T14:38:31;23.90;45.50
21425;DHT22;10873;51.132;16.848;2023-04-06T14:40:57;23.90;45.20
21425;DHT22;10873;51.132;16.848;2023-04-06T14:43:23;23.80;44.50
21425;DHT22;10873;51.132;16.848;2023-04-06T14:45:50;23.80;44.30
21425;DHT22;10873;51.132;16.848;2023-04-06T14:48:16;23.80;44.20
21425;DHT22;10873;51.132;16.848;2023-04-06T14:50:51;23.90;44.40
21425;DHT22;10873;51.132;16.848;2023-04-06T14:53:18;23.80;44.40
21425;DHT22;10873;51.132;16.848;2023-04-06T14:55:44;23.80;44.10
21425;DHT22;10873;51.132;16.848;2023-04-06T14:58:10;23.80;43.60
21425;DHT22;10873;51.132;16.848;2023-04-06T15:00:37;23.90;43.20
21425;DHT22;10873;51.132;16.848;2023-04-06T15:03:05;23.80;42.70
21425;DHT22;10873;51.132;16.848;2023-04-06T15:05:33;23.90;42.40
21425;DHT22;10873;51.132;16.848;2023-04-06T15:07:59;23.90;42.00
21425;DHT22;10873;51.132;16.848;2023-04-06T15:10:26;23.90;41.90
21425;DHT22;10873;51.132;16.848;2023-04-06T15:12:51;24.00;41.90